createdAt,value
2018-07-22T00:00:04.821Z,69.20
2018-07-22T00:01:04.688Z,69.10
2018-07-22T00:02:04.694Z,69.29
2018-07-22T00:03:04.699Z,69.77
2018-07-22T00:04:04.730Z,69.58
2018-07-22T00:05:04.833Z,69.96
2018-07-22T00:06:04.754Z,70.06
2018-07-22T00:07:04.742Z,69.87
2018-07-22T00:08:04.775Z,69.96
2018-07-22T00:09:04.791Z,69.77
2018-07-22T00:10:04.938Z,69.96
2018-07-22T00:11:04.813Z,70.35
2018-07-22T00:12:04.835Z,69.87
2018-07-22T00:13:04.866Z,70.73
2018-07-22T00:14:04.866Z,70.83
2018-07-22T00:15:04.867Z,71.21
2018-07-22T00:16:04.977Z,70.92
2018-07-22T00:17:04.895Z,70.92
2018-07-22T00:18:04.906Z,72.17
2018-07-22T00:19:04.921Z,72.61
2018-07-22T00:20:04.940Z,72.64
2018-07-22T00:21:05.084Z,72.32
2018-07-22T00:22:04.967Z,72.27
2018-07-22T00:23:04.981Z,72.55
2018-07-22T00:24:04.988Z,71.75
2018-07-22T00:25:04.997Z,72.45
2018-07-22T00:26:05.159Z,72.27
2018-07-22T00:27:05.025Z,72.36
2018-07-22T00:28:05.033Z,72.99
2018-07-22T00:29:05.070Z,73.86
2018-07-22T00:30:05.051Z,74.95
2018-07-22T00:31:05.225Z,73.19
2018-07-22T00:32:05.085Z,74.05
2018-07-22T00:33:05.110Z,73.86
2018-07-22T00:34:05.118Z,74.76
2018-07-22T00:35:05.124Z,74.82
2018-07-22T00:36:05.290Z,74.66
2018-07-22T00:37:05.140Z,75.10
2018-07-22T00:38:05.171Z,74.62
2018-07-22T00:39:05.183Z,74.82
2018-07-22T00:40:05.197Z,75.29
2018-07-22T00:41:05.339Z,75.20
2018-07-22T00:42:05.221Z,75.20
2018-07-22T00:43:05.233Z,75.20
2018-07-22T00:44:05.227Z,74.76
2018-07-22T00:45:05.255Z,74.72
2018-07-22T00:46:05.526Z,75.04
2018-07-22T00:47:05.289Z,75.48
2018-07-22T00:48:05.304Z,75.77
2018-07-22T00:49:05.313Z,76.10
2018-07-22T00:50:05.331Z,76.96
2018-07-22T00:51:05.470Z,76.25
2018-07-22T00:52:05.355Z,77.40
2018-07-22T00:53:05.348Z,77.97
2018-07-22T00:54:05.382Z,78.93
2018-07-22T00:55:05.392Z,80.47
2018-07-22T00:56:05.530Z,82.09
2018-07-22T00:57:05.418Z,81.90
2018-07-22T00:58:05.430Z,81.90
2018-07-22T00:59:05.427Z,82.09
2018-07-22T01:00:05.637Z,81.81
2018-07-22T01:01:05.574Z,81.90
2018-07-22T01:02:05.483Z,82.57
2018-07-22T01:03:05.493Z,82.38
2018-07-22T01:04:05.502Z,82.19
2018-07-22T01:05:05.501Z,81.62
2018-07-22T01:06:05.661Z,81.23
2018-07-22T01:07:05.542Z,81.13
2018-07-22T01:08:05.570Z,81.71
2018-07-22T01:09:05.571Z,81.23
2018-07-22T01:10:05.582Z,81.33
2018-07-22T01:11:05.743Z,81.71
2018-07-22T01:12:05.609Z,81.33
2018-07-22T01:13:05.608Z,81.62
2018-07-22T01:14:05.631Z,81.71
2018-07-22T01:15:05.650Z,81.33
2018-07-22T01:16:05.811Z,81.33
2018-07-22T01:17:05.675Z,81.62
2018-07-22T01:18:05.685Z,81.04
2018-07-22T01:19:05.696Z,81.62
2018-07-22T01:20:05.717Z,81.43
2018-07-22T01:21:05.876Z,81.52
2018-07-22T01:22:05.742Z,81.62
2018-07-22T01:23:05.751Z,81.43
2018-07-22T01:24:05.763Z,81.62
2018-07-22T01:25:05.786Z,81.81
2018-07-22T01:26:05.791Z,81.71
2018-07-22T01:27:05.956Z,81.43
2018-07-22T01:28:05.815Z,81.23
2018-07-22T01:29:05.829Z,81.52
2018-07-22T01:30:05.847Z,81.62
2018-07-22T01:31:05.833Z,80.85
2018-07-22T01:32:05.873Z,80.66
2018-07-22T01:33:06.031Z,80.94
2018-07-22T01:34:05.901Z,80.37
2018-07-22T01:35:05.911Z,79.80
2018-07-22T01:36:05.926Z,79.32
2018-07-22T01:37:05.931Z,79.99
2018-07-22T01:38:06.195Z,79.60
2018-07-22T01:39:05.961Z,79.60
2018-07-22T01:40:05.976Z,79.51
2018-07-22T01:41:05.971Z,78.55
2018-07-22T01:42:06.003Z,78.07
2018-07-22T01:43:06.132Z,77.21
2018-07-22T01:44:06.030Z,77.11
2018-07-22T01:45:06.037Z,76.15
2018-07-22T01:46:06.053Z,75.77
2018-07-22T01:47:06.045Z,75.90
2018-07-22T01:48:06.307Z,74.91
2018-07-22T01:49:06.094Z,74.95
2018-07-22T01:50:06.098Z,75.23
2018-07-22T01:51:06.120Z,74.47
2018-07-22T01:52:06.124Z,74.57
2018-07-22T01:53:06.285Z,74.66
2018-07-22T01:54:06.152Z,73.22
2018-07-22T01:55:06.171Z,73.13
2018-07-22T01:56:06.186Z,72.64
2018-07-22T01:57:06.195Z,73.32
2018-07-22T01:58:06.356Z,72.84
2018-07-22T01:59:06.224Z,73.32
2018-07-22T02:00:06.230Z,73.38
2018-07-22T02:01:06.246Z,73.32
2018-07-22T02:02:06.260Z,73.41
2018-07-22T02:03:06.350Z,72.94
2018-07-22T02:04:06.294Z,72.94
2018-07-22T02:05:06.291Z,73.03
2018-07-22T02:06:06.311Z,73.13
2018-07-22T02:07:06.319Z,72.64
2018-07-22T02:08:06.586Z,72.84
2018-07-22T02:09:06.345Z,73.70
2018-07-22T02:10:06.405Z,73.32
2018-07-22T02:11:06.377Z,72.64
2018-07-22T02:12:06.369Z,73.13
2018-07-22T02:13:06.488Z,73.03
2018-07-22T02:14:06.421Z,72.84
2018-07-22T02:15:06.432Z,72.55
2018-07-22T02:16:06.422Z,71.98
2018-07-22T02:17:06.455Z,72.45
2018-07-22T02:18:06.620Z,72.74
2018-07-22T02:19:06.484Z,72.17
2018-07-22T02:20:06.474Z,72.55
2018-07-22T02:21:06.504Z,72.07
2018-07-22T02:22:06.526Z,72.36
2018-07-22T02:23:06.693Z,72.27
2018-07-22T02:24:06.548Z,72.07
2018-07-22T02:25:06.562Z,72.61
2018-07-22T02:26:06.567Z,72.55
2018-07-22T02:27:06.565Z,73.51
2018-07-22T02:28:06.746Z,73.51
2018-07-22T02:29:06.613Z,73.32
2018-07-22T02:30:06.626Z,73.32
2018-07-22T02:31:06.632Z,73.03
2018-07-22T02:32:06.656Z,72.74
2018-07-22T02:33:06.816Z,72.27
2018-07-22T02:34:06.678Z,72.36
2018-07-22T02:35:06.672Z,72.17
2018-07-22T02:36:06.700Z,72.36
2018-07-22T02:37:06.700Z,72.84
2018-07-22T02:38:06.875Z,72.36
2018-07-22T02:39:06.743Z,72.17
2018-07-22T02:40:06.735Z,73.03
2018-07-22T02:41:06.769Z,73.03
2018-07-22T02:42:06.786Z,73.03
2018-07-22T02:43:06.792Z,72.94
2018-07-22T02:44:06.888Z,73.13
2018-07-22T02:45:06.806Z,72.84
2018-07-22T02:46:06.835Z,73.09
2018-07-22T02:47:06.847Z,73.95
2018-07-22T02:48:06.860Z,74.43
2018-07-22T02:49:07.023Z,74.33
2018-07-22T02:50:06.875Z,73.57
2018-07-22T02:51:06.879Z,74.24
2018-07-22T02:52:06.913Z,73.99
2018-07-22T02:53:06.924Z,74.24
2018-07-22T02:54:07.087Z,74.27
2018-07-22T02:55:06.949Z,73.61
2018-07-22T02:56:06.959Z,72.71
2018-07-22T02:57:06.970Z,73.32
2018-07-22T02:58:06.986Z,72.64
2018-07-22T02:59:07.157Z,72.94
2018-07-22T03:00:06.994Z,73.13
2018-07-22T03:01:07.020Z,73.22
2018-07-22T03:02:07.036Z,71.98
2018-07-22T03:03:07.053Z,72.27
2018-07-22T03:04:07.214Z,72.99
2018-07-22T03:05:07.079Z,72.17
2018-07-22T03:06:07.093Z,72.17
2018-07-22T03:07:07.098Z,72.64
2018-07-22T03:08:07.116Z,72.80
2018-07-22T03:09:07.357Z,72.52
2018-07-22T03:10:07.136Z,73.47
2018-07-22T03:11:07.149Z,73.38
2018-07-22T03:12:07.163Z,73.47
2018-07-22T03:13:07.182Z,74.15
2018-07-22T03:14:07.442Z,74.15
2018-07-22T03:15:07.214Z,73.95
2018-07-22T03:16:07.223Z,73.57
2018-07-22T03:17:07.239Z,73.86
2018-07-22T03:18:07.243Z,74.15
2018-07-22T03:19:07.505Z,74.15
2018-07-22T03:20:07.254Z,74.24
2018-07-22T03:21:07.282Z,74.24
2018-07-22T03:22:07.279Z,74.05
2018-07-22T03:23:07.312Z,73.28
2018-07-22T03:24:07.573Z,72.64
2018-07-22T03:25:07.336Z,72.17
2018-07-22T03:26:07.350Z,72.74
2018-07-22T03:27:07.365Z,72.55
2018-07-22T03:28:07.383Z,72.17
2018-07-22T03:29:07.533Z,71.98
2018-07-22T03:30:07.402Z,72.74
2018-07-22T03:31:07.421Z,72.64
2018-07-22T03:32:07.411Z,72.94
2018-07-22T03:33:07.425Z,72.94
2018-07-22T03:34:07.602Z,72.52
2018-07-22T03:35:07.460Z,73.13
2018-07-22T03:36:07.465Z,72.52
2018-07-22T03:37:07.489Z,73.57
2018-07-22T03:38:07.511Z,73.86
2018-07-22T03:39:07.766Z,73.57
2018-07-22T03:40:07.567Z,74.43
2018-07-22T03:41:07.546Z,73.95
2018-07-22T03:42:07.555Z,74.62
2018-07-22T03:43:07.549Z,74.52
2018-07-22T03:44:07.731Z,74.72
2018-07-22T03:45:07.606Z,74.62
2018-07-22T03:46:07.607Z,74.62
2018-07-22T03:47:07.601Z,74.43
2018-07-22T03:48:07.635Z,74.33
2018-07-22T03:49:07.791Z,74.43
2018-07-22T03:50:07.642Z,74.52
2018-07-22T03:51:07.672Z,74.62
2018-07-22T03:52:07.685Z,74.43
2018-07-22T03:53:07.697Z,74.62
2018-07-22T03:54:07.862Z,74.62
2018-07-22T03:55:07.723Z,74.43
2018-07-22T03:56:07.718Z,74.33
2018-07-22T03:57:07.749Z,74.24
2018-07-22T03:58:07.771Z,74.43
2018-07-22T03:59:07.779Z,74.52
2018-07-22T04:00:07.891Z,74.52
2018-07-22T04:01:07.784Z,74.24
2018-07-22T04:02:07.790Z,74.52
2018-07-22T04:03:07.810Z,74.47
2018-07-22T04:04:07.840Z,74.15
2018-07-22T04:05:08.003Z,74.43
2018-07-22T04:06:07.863Z,75.29
2018-07-22T04:07:07.973Z,76.25
2018-07-22T04:08:07.895Z,75.10
2018-07-22T04:09:07.888Z,74.91
2018-07-22T04:10:08.067Z,75.39
2018-07-22T04:11:07.935Z,75.39
2018-07-22T04:12:07.920Z,75.01
2018-07-22T04:13:07.953Z,75.29
2018-07-22T04:14:07.967Z,74.43
2018-07-22T04:15:08.129Z,74.52
2018-07-22T04:16:07.978Z,74.52
2018-07-22T04:17:08.011Z,74.91
2018-07-22T04:18:08.015Z,74.72
2018-07-22T04:19:08.035Z,74.33
2018-07-22T04:20:08.195Z,75.20
2018-07-22T04:21:08.057Z,75.20
2018-07-22T04:22:08.071Z,75.68
2018-07-22T04:23:08.070Z,75.68
2018-07-22T04:24:08.098Z,74.43
2018-07-22T04:25:08.260Z,74.24
2018-07-22T04:26:08.124Z,73.47
2018-07-22T04:27:08.136Z,74.43
2018-07-22T04:28:08.148Z,74.72
2018-07-22T04:29:08.160Z,74.91
2018-07-22T04:30:08.326Z,75.58
2018-07-22T04:31:08.186Z,75.68
2018-07-22T04:32:08.204Z,76.25
2018-07-22T04:33:08.214Z,76.44
2018-07-22T04:34:08.216Z,76.82
2018-07-22T04:35:08.471Z,76.92
2018-07-22T04:36:08.246Z,76.54
2018-07-22T04:37:08.259Z,75.87
2018-07-22T04:38:08.277Z,76.25
2018-07-22T04:39:08.293Z,76.15
2018-07-22T04:40:08.555Z,75.96
2018-07-22T04:41:08.313Z,76.73
2018-07-22T04:42:08.327Z,76.92
2018-07-22T04:43:08.342Z,76.92
2018-07-22T04:44:08.354Z,77.11
2018-07-22T04:45:08.468Z,77.02
2018-07-22T04:46:08.375Z,76.73
2018-07-22T04:47:08.397Z,76.82
2018-07-22T04:48:08.387Z,76.82
2018-07-22T04:49:08.411Z,76.54
2018-07-22T04:50:08.574Z,76.25
2018-07-22T04:51:08.442Z,75.58
2018-07-22T04:52:08.441Z,75.77
2018-07-22T04:53:08.467Z,75.48
2018-07-22T04:54:08.464Z,75.10
2018-07-22T04:55:08.638Z,75.87
2018-07-22T04:56:08.514Z,75.77
2018-07-22T04:57:08.517Z,75.96
2018-07-22T04:58:08.531Z,75.77
2018-07-22T04:59:08.542Z,75.58
2018-07-22T05:00:08.710Z,76.54
2018-07-22T05:01:08.568Z,76.82
2018-07-22T05:02:08.586Z,76.35
2018-07-22T05:03:08.599Z,75.87
2018-07-22T05:04:08.611Z,75.58
2018-07-22T05:05:08.770Z,75.39
2018-07-22T05:06:08.634Z,75.77
2018-07-22T05:07:08.646Z,75.68
2018-07-22T05:08:08.662Z,75.77
2018-07-22T05:09:08.670Z,75.87
2018-07-22T05:10:08.831Z,75.77
2018-07-22T05:11:08.694Z,75.96
2018-07-22T05:12:08.711Z,75.10
2018-07-22T05:13:08.705Z,75.39
2018-07-22T05:14:08.731Z,75.20
2018-07-22T05:15:08.747Z,75.01
2018-07-22T05:16:08.911Z,75.20
2018-07-22T05:17:08.776Z,74.62
2018-07-22T05:18:08.771Z,74.91
2018-07-22T05:19:08.806Z,75.01
2018-07-22T05:20:08.816Z,74.62
2018-07-22T05:21:09.004Z,74.52
2018-07-22T05:22:08.845Z,74.72
2018-07-22T05:23:08.829Z,74.43
2018-07-22T05:24:08.868Z,73.76
2018-07-22T05:25:08.875Z,74.52
2018-07-22T05:26:09.039Z,74.43
2018-07-22T05:27:08.899Z,75.20
2018-07-22T05:28:08.912Z,75.29
2018-07-22T05:29:08.906Z,75.29
2018-07-22T05:30:08.943Z,75.68
2018-07-22T05:31:09.117Z,75.96
2018-07-22T05:32:08.962Z,75.68
2018-07-22T05:33:08.976Z,76.44
2018-07-22T05:34:08.986Z,76.25
2018-07-22T05:35:09.005Z,76.35
2018-07-22T05:36:09.215Z,76.54
2018-07-22T05:37:09.035Z,76.15
2018-07-22T05:38:09.046Z,76.06
2018-07-22T05:39:09.061Z,75.77
2018-07-22T05:40:09.061Z,75.48
2018-07-22T05:41:09.228Z,75.29
2018-07-22T05:42:09.108Z,74.91
2018-07-22T05:43:09.107Z,74.91
2018-07-22T05:44:09.117Z,75.01
2018-07-22T05:45:09.135Z,74.82
2018-07-22T05:46:09.392Z,74.82
2018-07-22T05:47:09.157Z,74.62
2018-07-22T05:48:09.209Z,74.62
2018-07-22T05:49:09.188Z,74.52
2018-07-22T05:50:09.178Z,74.62
2018-07-22T05:51:09.356Z,74.91
2018-07-22T05:52:09.220Z,74.05
2018-07-22T05:53:09.233Z,74.24
2018-07-22T05:54:09.246Z,74.05
2018-07-22T05:55:09.255Z,74.24
2018-07-22T05:56:09.405Z,73.57
2018-07-22T05:57:09.282Z,73.76
2018-07-22T05:58:09.298Z,73.66
2018-07-22T05:59:09.307Z,73.57
2018-07-22T06:00:09.329Z,73.28
2018-07-22T06:01:09.466Z,73.76
2018-07-22T06:02:09.345Z,73.28
2018-07-22T06:03:09.386Z,72.99
2018-07-22T06:04:09.374Z,73.09
2018-07-22T06:05:09.387Z,73.09
2018-07-22T06:06:09.645Z,72.99
2018-07-22T06:07:09.406Z,73.47
2018-07-22T06:08:09.427Z,72.99
2018-07-22T06:09:09.435Z,73.28
2018-07-22T06:10:09.450Z,73.76
2018-07-22T06:11:09.617Z,73.57
2018-07-22T06:12:09.509Z,73.86
2018-07-22T06:13:09.488Z,73.38
2018-07-22T06:14:09.496Z,73.86
2018-07-22T06:15:09.512Z,73.86
2018-07-22T06:16:09.674Z,73.47
2018-07-22T06:17:09.532Z,73.66
2018-07-22T06:18:09.552Z,73.38
2018-07-22T06:19:09.566Z,74.24
2018-07-22T06:20:09.557Z,74.33
2018-07-22T06:21:09.737Z,75.01
2018-07-22T06:22:09.601Z,74.91
2018-07-22T06:23:09.609Z,75.10
2018-07-22T06:24:09.629Z,74.72
2018-07-22T06:25:09.639Z,74.15
2018-07-22T06:26:09.784Z,74.05
2018-07-22T06:27:09.673Z,73.38
2018-07-22T06:28:09.683Z,74.05
2018-07-22T06:29:09.693Z,74.24
2018-07-22T06:30:09.703Z,74.24
2018-07-22T06:31:09.719Z,74.24
2018-07-22T06:32:09.886Z,73.47
2018-07-22T06:33:09.725Z,73.28
2018-07-22T06:34:09.757Z,73.66
2018-07-22T06:35:09.818Z,73.47
2018-07-22T06:36:09.779Z,72.61
2018-07-22T06:37:09.791Z,72.71
2018-07-22T06:38:09.959Z,72.42
2018-07-22T06:39:09.801Z,72.80
2018-07-22T06:40:09.814Z,73.19
2018-07-22T06:41:09.865Z,72.52
2018-07-22T06:42:09.858Z,73.09
2018-07-22T06:43:10.014Z,73.28
2018-07-22T06:44:09.865Z,73.66
2018-07-22T06:45:09.896Z,73.47
2018-07-22T06:46:09.936Z,73.66
2018-07-22T06:47:09.924Z,73.28
2018-07-22T06:48:10.187Z,73.09
2018-07-22T06:49:09.943Z,73.47
2018-07-22T06:50:09.955Z,73.09
2018-07-22T06:51:09.973Z,72.61
2018-07-22T06:52:09.984Z,71.56
2018-07-22T06:53:10.093Z,72.03
2018-07-22T06:54:10.008Z,72.52
2018-07-22T06:55:10.029Z,72.52
2018-07-22T06:56:10.033Z,72.61
2018-07-22T06:57:10.083Z,72.71
2018-07-22T06:58:10.159Z,72.61
2018-07-22T06:59:10.059Z,72.80
2018-07-22T07:00:10.063Z,72.42
2018-07-22T07:01:10.097Z,72.42
2018-07-22T07:02:10.109Z,72.80
2018-07-22T07:03:10.267Z,72.71
2018-07-22T07:04:10.134Z,72.61
2018-07-22T07:05:10.156Z,72.61
2018-07-22T07:06:10.144Z,72.23
2018-07-22T07:07:10.175Z,72.61
2018-07-22T07:08:10.286Z,72.61
2018-07-22T07:09:10.198Z,72.32
2018-07-22T07:10:10.206Z,72.13
2018-07-22T07:11:10.219Z,72.03
2018-07-22T07:12:10.234Z,71.46
2018-07-22T07:13:10.402Z,72.23
2018-07-22T07:14:10.260Z,72.23
2018-07-22T07:15:10.273Z,72.42
2018-07-22T07:16:10.284Z,71.94
2018-07-22T07:17:10.300Z,71.66
2018-07-22T07:18:10.563Z,72.23
2018-07-22T07:19:10.304Z,72.52
2018-07-22T07:20:10.332Z,72.42
2018-07-22T07:21:10.333Z,73.19
2018-07-22T07:22:10.364Z,73.76
2018-07-22T07:23:10.622Z,73.24
2018-07-22T07:24:10.386Z,73.86
2018-07-22T07:25:10.380Z,74.20
2018-07-22T07:26:10.414Z,74.40
2018-07-22T07:27:10.405Z,74.20
2018-07-22T07:28:10.567Z,74.87
2018-07-22T07:29:10.449Z,74.68
2018-07-22T07:30:10.459Z,74.87
2018-07-22T07:31:10.479Z,74.77
2018-07-22T07:32:10.487Z,74.43
2018-07-22T07:33:10.751Z,74.87
2018-07-22T07:34:10.508Z,74.58
2018-07-22T07:35:10.526Z,74.68
2018-07-22T07:36:10.513Z,75.07
2018-07-22T07:37:10.536Z,74.77
2018-07-22T07:38:10.563Z,75.07
2018-07-22T07:39:10.731Z,74.87
2018-07-22T07:40:10.589Z,75.07
2018-07-22T07:41:10.606Z,75.10
2018-07-22T07:42:10.641Z,75.45
2018-07-22T07:43:10.628Z,74.91
2018-07-22T07:44:10.794Z,74.68
2018-07-22T07:45:10.651Z,74.87
2018-07-22T07:46:10.657Z,74.82
2018-07-22T07:47:10.677Z,74.72
2018-07-22T07:48:10.691Z,75.01
2018-07-22T07:49:10.693Z,74.52
2018-07-22T07:50:10.846Z,74.33
2018-07-22T07:51:10.724Z,74.72
2018-07-22T07:52:10.733Z,75.10
2018-07-22T07:53:10.748Z,74.91
2018-07-22T07:54:10.744Z,75.93
2018-07-22T07:55:10.870Z,75.77
2018-07-22T07:56:10.769Z,76.02
2018-07-22T07:57:10.800Z,76.15
2018-07-22T07:58:10.810Z,76.21
2018-07-22T07:59:10.827Z,74.97
2018-07-22T08:00:10.935Z,75.16
2018-07-22T08:01:10.846Z,74.91
2018-07-22T08:02:10.863Z,74.33
2018-07-22T08:03:10.951Z,74.58
2018-07-22T08:04:10.962Z,74.30
2018-07-22T08:05:11.099Z,74.20
2018-07-22T08:06:10.967Z,74.20
2018-07-22T08:07:10.998Z,74.58
2018-07-22T08:08:11.003Z,73.72
2018-07-22T08:09:11.025Z,73.72
2018-07-22T08:10:11.278Z,74.40
2018-07-22T08:11:11.033Z,74.20
2018-07-22T08:12:10.967Z,74.58
2018-07-22T08:13:10.989Z,75.07
2018-07-22T08:14:11.015Z,75.35
2018-07-22T08:15:11.181Z,74.97
2018-07-22T08:16:11.037Z,76.02
2018-07-22T08:17:11.093Z,75.54
2018-07-22T08:18:11.062Z,76.12
2018-07-22T08:19:11.123Z,76.21
2018-07-22T08:20:11.230Z,75.93
2018-07-22T08:21:11.095Z,76.50
2018-07-22T08:22:11.192Z,76.98
2018-07-22T08:23:11.121Z,76.50
2018-07-22T08:24:11.131Z,77.08
2018-07-22T08:25:11.295Z,76.98
2018-07-22T08:26:11.240Z,76.79
2018-07-22T08:27:11.176Z,76.79
2018-07-22T08:28:11.183Z,76.79
2018-07-22T08:29:11.199Z,76.98
2018-07-22T08:30:11.456Z,77.26
2018-07-22T08:31:11.217Z,77.17
2018-07-22T08:32:11.215Z,77.08
2018-07-22T08:33:11.243Z,76.69
2018-07-22T08:34:11.261Z,76.79
2018-07-22T08:35:11.420Z,77.17
2018-07-22T08:36:11.281Z,76.50
2018-07-22T08:37:11.295Z,76.31
2018-07-22T08:38:11.308Z,76.21
2018-07-22T08:39:11.325Z,76.31
2018-07-22T08:40:11.487Z,74.87
2018-07-22T08:41:11.371Z,74.97
2018-07-22T08:42:11.357Z,74.87
2018-07-22T08:43:11.369Z,74.87
2018-07-22T08:44:11.377Z,74.68
2018-07-22T08:45:11.551Z,74.87
2018-07-22T08:46:11.405Z,74.58
2018-07-22T08:47:11.413Z,74.30
2018-07-22T08:48:11.436Z,74.40
2018-07-22T08:49:11.422Z,74.40
2018-07-22T08:50:11.539Z,74.97
2018-07-22T08:51:11.495Z,75.45
2018-07-22T08:52:11.485Z,75.35
2018-07-22T08:53:11.512Z,75.54
2018-07-22T08:54:11.506Z,75.83
2018-07-22T08:55:11.613Z,76.12
2018-07-22T08:56:11.537Z,75.35
2018-07-22T08:57:11.545Z,75.45
2018-07-22T08:58:11.555Z,75.83
2018-07-22T08:59:11.543Z,75.93
2018-07-22T09:00:11.716Z,76.40
2018-07-22T09:01:11.600Z,76.60
2018-07-22T09:02:11.604Z,76.31
2018-07-22T09:03:11.619Z,76.02
2018-07-22T09:04:11.634Z,76.12
2018-07-22T09:05:11.740Z,76.31
2018-07-22T09:06:11.637Z,76.40
2018-07-22T09:07:11.650Z,76.40
2018-07-22T09:08:11.736Z,76.31
2018-07-22T09:09:11.687Z,76.79
2018-07-22T09:10:11.703Z,77.17
2018-07-22T09:11:11.821Z,77.08
2018-07-22T09:12:11.736Z,76.98
2018-07-22T09:13:11.737Z,77.17
2018-07-22T09:14:11.756Z,77.65
2018-07-22T09:15:11.766Z,77.94
2018-07-22T09:16:11.927Z,78.32
2018-07-22T09:17:11.790Z,78.42
2018-07-22T09:18:11.804Z,78.70
2018-07-22T09:19:11.812Z,78.99
2018-07-22T09:20:11.848Z,78.89
2018-07-22T09:21:11.936Z,78.80
2018-07-22T09:22:11.855Z,78.89
2018-07-22T09:23:11.862Z,79.28
2018-07-22T09:24:11.880Z,79.47
2018-07-22T09:25:11.891Z,79.75
2018-07-22T09:26:12.051Z,79.66
2018-07-22T09:27:11.912Z,79.57
2018-07-22T09:28:11.908Z,79.47
2018-07-22T09:29:11.940Z,79.08
2018-07-22T09:30:11.955Z,79.28
2018-07-22T09:31:12.125Z,79.28
2018-07-22T09:32:11.980Z,79.37
2018-07-22T09:33:11.995Z,79.28
2018-07-22T09:34:12.000Z,79.66
2018-07-22T09:35:12.011Z,79.85
2018-07-22T09:36:12.275Z,79.47
2018-07-22T09:37:12.037Z,79.47
2018-07-22T09:38:12.052Z,78.99
2018-07-22T09:39:12.061Z,79.47
2018-07-22T09:40:12.073Z,79.57
2018-07-22T09:41:12.168Z,79.37
2018-07-22T09:42:12.093Z,79.47
2018-07-22T09:43:12.114Z,79.08
2018-07-22T09:44:12.104Z,78.61
2018-07-22T09:45:12.137Z,79.08
2018-07-22T09:46:12.250Z,79.37
2018-07-22T09:47:12.159Z,78.80
2018-07-22T09:48:12.213Z,78.22
2018-07-22T09:49:12.185Z,78.42
2018-07-22T09:50:12.200Z,77.94
2018-07-22T09:51:12.356Z,77.55
2018-07-22T09:52:12.224Z,77.84
2018-07-22T09:53:12.227Z,77.26
2018-07-22T09:54:12.225Z,76.50
2018-07-22T09:55:12.257Z,76.60
2018-07-22T09:56:12.424Z,76.40
2018-07-22T09:57:12.280Z,76.02
2018-07-22T09:58:12.292Z,75.35
2018-07-22T09:59:12.345Z,75.26
2018-07-22T10:00:12.320Z,74.97
2018-07-22T10:01:12.479Z,74.97
2018-07-22T10:02:12.347Z,75.07
2018-07-22T10:03:12.368Z,75.07
2018-07-22T10:04:12.367Z,75.26
2018-07-22T10:05:12.386Z,75.16
2018-07-22T10:06:12.471Z,75.07
2018-07-22T10:07:12.382Z,74.97
2018-07-22T10:08:12.416Z,75.41
2018-07-22T10:09:12.432Z,75.70
2018-07-22T10:10:12.443Z,75.83
2018-07-22T10:11:12.595Z,75.93
2018-07-22T10:12:12.444Z,75.93
2018-07-22T10:13:12.478Z,75.64
2018-07-22T10:14:12.487Z,75.73
2018-07-22T10:15:12.503Z,75.64
2018-07-22T10:16:12.666Z,75.73
2018-07-22T10:17:12.525Z,76.12
2018-07-22T10:18:12.541Z,76.12
2018-07-22T10:19:12.553Z,76.21
2018-07-22T10:20:12.565Z,76.02
2018-07-22T10:21:12.725Z,76.31
2018-07-22T10:22:12.568Z,76.40
2018-07-22T10:23:12.600Z,76.60
2018-07-22T10:24:12.614Z,76.21
2018-07-22T10:25:12.626Z,76.60
2018-07-22T10:26:12.623Z,76.31
2018-07-22T10:27:12.797Z,76.21
2018-07-22T10:28:12.642Z,76.21
2018-07-22T10:29:12.654Z,76.21
2018-07-22T10:30:12.666Z,75.93
2018-07-22T10:31:12.695Z,75.45
2018-07-22T10:32:12.689Z,75.54
2018-07-22T10:33:12.827Z,75.73
2018-07-22T10:34:12.734Z,75.45
2018-07-22T10:35:12.751Z,75.45
2018-07-22T10:36:12.759Z,75.83
2018-07-22T10:37:12.774Z,75.45
2018-07-22T10:38:12.932Z,76.02
2018-07-22T10:39:12.796Z,75.83
2018-07-22T10:40:12.812Z,75.83
2018-07-22T10:41:12.821Z,75.73
2018-07-22T10:42:12.834Z,76.21
2018-07-22T10:43:12.997Z,75.73
2018-07-22T10:44:12.855Z,76.02
2018-07-22T10:45:12.878Z,75.45
2018-07-22T10:46:12.879Z,75.54
2018-07-22T10:47:12.897Z,75.45
2018-07-22T10:48:13.060Z,75.54
2018-07-22T10:49:12.911Z,75.45
2018-07-22T10:50:12.916Z,75.64
2018-07-22T10:51:12.942Z,75.83
2018-07-22T10:52:12.940Z,76.31
2018-07-22T10:53:13.129Z,76.21
2018-07-22T10:54:12.985Z,76.12
2018-07-22T10:55:13.006Z,76.21
2018-07-22T10:56:13.008Z,76.54
2018-07-22T10:57:13.027Z,76.15
2018-07-22T10:58:13.185Z,76.15
2018-07-22T10:59:13.049Z,75.96
2018-07-22T11:00:13.065Z,76.25
2018-07-22T11:01:13.073Z,76.06
2018-07-22T11:02:13.090Z,76.06
2018-07-22T11:03:13.213Z,75.96
2018-07-22T11:04:13.093Z,76.44
2018-07-22T11:05:13.099Z,76.35
2018-07-22T11:06:13.139Z,76.35
2018-07-22T11:07:13.145Z,76.06
2018-07-22T11:08:13.413Z,76.35
2018-07-22T11:09:13.177Z,76.15
2018-07-22T11:10:13.185Z,76.15
2018-07-22T11:11:13.199Z,76.44
2018-07-22T11:12:13.218Z,75.96
2018-07-22T11:13:13.375Z,76.35
2018-07-22T11:14:13.257Z,76.44
2018-07-22T11:15:13.250Z,76.35
2018-07-22T11:16:13.267Z,76.54
2018-07-22T11:17:13.272Z,76.64
2018-07-22T11:18:13.393Z,76.25
2018-07-22T11:19:13.301Z,76.64
2018-07-22T11:20:13.312Z,76.54
2018-07-22T11:21:13.407Z,76.44
2018-07-22T11:22:13.340Z,76.44
2018-07-22T11:23:13.459Z,76.44
2018-07-22T11:24:13.364Z,76.15
2018-07-22T11:25:13.384Z,76.06
2018-07-22T11:26:13.391Z,75.48
2018-07-22T11:27:13.402Z,75.29
2018-07-22T11:28:13.570Z,75.23
2018-07-22T11:29:13.435Z,74.76
2018-07-22T11:30:13.441Z,74.85
2018-07-22T11:31:13.455Z,74.27
2018-07-22T11:32:13.470Z,74.47
2018-07-22T11:33:13.585Z,73.90
2018-07-22T11:34:13.502Z,73.99
2018-07-22T11:35:13.512Z,74.18
2018-07-22T11:36:13.525Z,73.90
2018-07-22T11:37:13.515Z,73.80
2018-07-22T11:38:13.710Z,73.51
2018-07-22T11:39:13.566Z,73.51
2018-07-22T11:40:13.558Z,73.51
2018-07-22T11:41:13.598Z,73.70
2018-07-22T11:42:13.607Z,72.74
2018-07-22T11:43:13.621Z,73.07
2018-07-22T11:44:13.733Z,72.68
2018-07-22T11:45:13.627Z,72.01
2018-07-22T11:46:13.664Z,72.39
2018-07-22T11:47:13.670Z,72.49
2018-07-22T11:48:13.690Z,72.20
2018-07-22T11:49:13.699Z,71.34
2018-07-22T11:50:13.915Z,72.11
2018-07-22T11:51:13.727Z,71.44
2018-07-22T11:52:13.740Z,70.86
2018-07-22T11:53:13.733Z,71.25
2018-07-22T11:54:13.772Z,71.15
2018-07-22T11:55:14.036Z,71.34
2018-07-22T11:56:13.804Z,71.34
2018-07-22T11:57:13.809Z,71.44
2018-07-22T11:58:13.827Z,71.25
2018-07-22T11:59:13.827Z,72.01
2018-07-22T12:00:14.090Z,71.92
2018-07-22T12:01:13.854Z,71.34
2018-07-22T12:02:13.882Z,71.92
2018-07-22T12:03:13.900Z,72.01
2018-07-22T12:04:13.911Z,72.39
2018-07-22T12:05:14.074Z,72.78
2018-07-22T12:06:13.932Z,72.01
2018-07-22T12:07:13.950Z,72.59
2018-07-22T12:08:13.959Z,72.49
2018-07-22T12:09:13.973Z,72.39
2018-07-22T12:10:14.240Z,72.68
2018-07-22T12:11:14.004Z,72.78
2018-07-22T12:12:14.056Z,72.49
2018-07-22T12:13:14.017Z,72.11
2018-07-22T12:14:14.026Z,72.68
2018-07-22T12:15:14.205Z,72.68
2018-07-22T12:16:14.052Z,72.68
2018-07-22T12:17:14.080Z,73.45
2018-07-22T12:18:14.093Z,73.16
2018-07-22T12:19:14.093Z,73.26
2018-07-22T12:20:14.276Z,73.55
2018-07-22T12:21:14.170Z,73.26
2018-07-22T12:22:14.357Z,73.35
2018-07-22T12:23:14.165Z,73.07
2018-07-22T12:24:14.178Z,73.93
2018-07-22T12:25:14.274Z,73.07
2018-07-22T12:26:14.210Z,72.20
2018-07-22T12:27:14.219Z,71.92
2018-07-22T12:28:14.237Z,71.34
2018-07-22T12:29:14.305Z,71.25
2018-07-22T12:30:14.363Z,71.09
2018-07-22T12:31:14.260Z,70.86
2018-07-22T12:32:14.296Z,70.80
2018-07-22T12:33:14.300Z,70.23
2018-07-22T12:34:14.323Z,70.51
2018-07-22T12:35:14.486Z,70.42
2018-07-22T12:36:14.344Z,69.56
2018-07-22T12:37:14.361Z,69.26
2018-07-22T12:38:14.377Z,68.40
2018-07-22T12:39:14.389Z,68.02
2018-07-22T12:40:14.556Z,67.06
2018-07-22T12:41:14.420Z,67.09
2018-07-22T12:42:14.442Z,64.50
2018-07-22T12:43:14.447Z,64.22
2018-07-22T12:44:14.446Z,63.45
2018-07-22T12:45:14.630Z,63.54
2018-07-22T12:46:14.478Z,63.16
2018-07-22T12:47:14.506Z,62.68
2018-07-22T12:48:14.517Z,61.72
2018-07-22T12:49:14.537Z,61.91
2018-07-22T12:50:14.696Z,62.01
2018-07-22T12:51:14.548Z,61.91
2018-07-22T12:52:14.585Z,62.96